• Join FlightAware (Why Join?)
  • Login
  • US Flag 
05:00AM EDT


 

Airport Tracker/Info


-or-


 

Live Flight TrackerFlight Track Log ✈ KAP927 ✈ 28-Jun-2013 ✈ KOGS - KALB

Flight Track Log - Related Links

Times and Time Zones

All times are in EDT time to prevent confusion due to time zone crossing. See the KAP927 flight status page for this flight to view local times or setup timezone preferences in your user account.

Time Position Orientation Groundspeed Altitude Reporting Facility
EDT Latitude Longitude Course Direction KTS MPH feet Rate Location/Type
05:29PM 44.4902 -75.2947 149° Southeast  Level Estimated
05:29PM 44.5833 -75.4161 149° Southeast 156 180 2,700  Level Boston Center
05:30PM 44.5550 -75.3856 142° Southeast 144 166 3,300 540 Climbing Boston Center
05:31PM 44.5244 -75.3608 150° Southeast 138 159 3,800 540 Climbing Boston Center
05:32PM 44.4936 -75.3389 153° Southeast 133 153 4,400 420 Climbing Boston Center
05:33PM 44.4633 -75.3053 142° Southeast 133 153 4,700 360 Climbing Boston Center
05:34PM 44.4267 -75.2717 147° Southeast 145 167 5,200 540 Climbing Boston Center
05:35PM 44.3939 -75.2439 149° Southeast 145 167 5,800 480 Climbing Boston Center
05:36PM 44.3614 -75.2133 146° Southeast 140 161 6,200 420 Climbing Boston Center
05:37PM 44.3267 -75.1825 148° Southeast 140 161 6,700 300 Climbing Boston Center
05:38PM 44.2878 -75.1461 146° Southeast 145 167 6,900 120 Climbing Boston Center
05:39PM 44.2469 -75.1122 149° Southeast 158 182 7,000  Climbing Boston Center
05:40PM 44.2061 -75.0756 147° Southeast 171 197 7,000  Level Boston Center
05:41PM 44.1633 -75.0361 147° Southeast 181 208 7,000  Level Boston Center
05:42PM 44.1306 -75.0058 146° Southeast 181 208 7,000  Level Boston Center
05:43PM 44.0919 -74.9694 146° Southeast 175 201 7,000  Level Boston Center
05:44PM 44.0508 -74.9389 152° Southeast 175 201 7,000  Level Boston Center
05:45PM 44.0142 -74.9028 145° Southeast 169 194 7,000  Level Boston Center
05:46PM 43.9792 -74.8722 148° Southeast 163 188 7,000  Level Boston Center
05:47PM 43.9406 -74.8361 146° Southeast 163 188 7,000  Level Boston Center
05:48PM 43.9017 -74.8031 149° Southeast 163 188 7,000  Level Boston Center
05:49PM 43.8667 -74.7728 148° Southeast 163 188 7,000  Level Boston Center
05:50PM 43.8278 -74.7367 146° Southeast 163 188 7,000  Level Boston Center
05:51PM 43.7911 -74.7036 147° Southeast 163 188 7,000  Level Boston Center
05:52PM 43.7519 -74.6706 149° Southeast 163 188 7,000  Level Boston Center
05:53PM 43.7153 -74.6375 147° Southeast 163 188 7,000  Level Boston Center
05:54PM 43.6761 -74.6044 149° Southeast 163 188 7,000  Level Boston Center
05:55PM 43.6394 -74.5717 147° Southeast 163 188 7,000  Level Boston Center
05:56PM 43.6022 -74.5417 150° Southeast 163 188 7,000  Level Boston Center
05:57PM 43.5656 -74.5089 147° Southeast 163 188 7,000  Level Boston Center
05:58PM 43.5286 -74.4761 147° Southeast 163 188 7,000  Level Boston Center
05:59PM 43.4808 -74.4631 169° South 149 171 7,000  Level Boston Center
06:00PM 43.4456 -74.4447 159° South 152 175 7,000  Level Boston Center
06:01PM 43.4003 -74.4261 163° South 152 175 7,000  Level Boston Center
06:02PM 43.3525 -74.4075 164° South 152 175 7,000  Level Boston Center
06:03PM 43.3111 -74.3919 165° South 152 175 7,000  Level Boston Center
06:04PM 43.2739 -74.3736 160° South 152 175 7,000  Level Boston Center
06:05PM 43.2369 -74.3411 147° Southeast 152 175 7,000 -180 Level Boston Center
06:06PM 43.2000 -74.3028 143° Southeast 156 180 6,700 -300 Descending Boston Center
06:07PM 43.1653 -74.2675 143° Southeast 162 186 6,400 -420 Descending Boston Center
06:08PM 43.1303 -74.2294 142° Southeast 172 198 5,900 -480 Descending Boston Center
06:09PM 43.0872 -74.1828 142° Southeast 177 204 5,500 -420 Descending Boston Center
06:10PM 43.0483 -74.1361 139° Southeast 176 203 5,100 -300 Descending Boston Center
06:11PM 43.0136 -74.0983 141° Southeast 177 204 5,000 -300 Descending Boston Center
06:12PM 42.9767 -74.0519 137° Southeast 161 185 4,600 -420 Descending Boston Center
06:13PM 42.9356 -74.0083 142° Southeast 181 208 4,100 -300 Descending Boston Center
06:14PM 42.8967 -73.9678 143° Southeast 177 204 4,000 -60 Descending Boston Center
06:15PM 42.8614 -73.9497 159° South 145 167 4,000  Level Boston Center
06:16PM 42.8242 -73.9264 155° Southeast 148 170 4,000 -240 Level Boston Center
06:17PM 42.7850 -73.9028 156° South 155 178 3,600 -540 Descending Boston Center
06:18PM 42.7392 -73.8903 169° South 181 208 3,000 -840 Descending Boston Center
06:19PM 42.7003 -73.8469 141° Southeast 190 219 2,000 -1,020 Descending Boston Center
06:20PM 42.7089 -73.8075 73° East 146 168 1,000 -1,020 Descending Boston Center